createdAt,value
2019-05-25T00:00:15.382Z,11.69
2019-05-25T00:02:44.407Z,11.63
2019-05-25T00:05:13.784Z,11.64
2019-05-25T00:07:42.927Z,11.66
2019-05-25T00:10:13.278Z,11.70
2019-05-25T00:12:42.973Z,11.70
2019-05-25T00:15:13.065Z,11.67
2019-05-25T00:17:42.092Z,11.76
2019-05-25T00:20:11.231Z,11.87
2019-05-25T00:22:40.252Z,11.92
2019-05-25T00:25:09.253Z,11.96
2019-05-25T00:27:38.615Z,12.00
2019-05-25T00:30:08.444Z,12.01
2019-05-25T00:32:37.790Z,12.03
2019-05-25T00:35:06.833Z,12.13
2019-05-25T00:37:35.767Z,12.19
2019-05-25T00:40:05.444Z,12.14
2019-05-25T00:42:34.482Z,12.23
2019-05-25T00:45:03.593Z,12.23
2019-05-25T00:47:32.641Z,12.19
2019-05-25T00:50:01.651Z,12.19
2019-05-25T00:52:30.694Z,12.14
2019-05-25T00:54:59.630Z,12.16
2019-05-25T00:57:28.568Z,11.93
2019-05-25T00:59:57.591Z,11.87
2019-05-25T01:02:26.601Z,11.89
2019-05-25T01:04:55.638Z,11.84
2019-05-25T01:07:24.569Z,11.84
2019-05-25T01:09:53.600Z,11.79
2019-05-25T01:12:22.622Z,11.64
2019-05-25T01:14:51.668Z,11.72
2019-05-25T01:17:20.697Z,11.68
2019-05-25T01:19:50.096Z,11.58
2019-05-25T01:22:19.110Z,11.59
2019-05-25T01:24:48.110Z,11.60
2019-05-25T01:27:17.135Z,11.62
2019-05-25T01:29:46.455Z,11.49
2019-05-25T01:32:16.622Z,11.47
2019-05-25T01:34:45.679Z,11.43
2019-05-25T01:37:14.977Z,11.35
2019-05-25T01:39:43.993Z,11.34
2019-05-25T01:42:13.700Z,11.24
2019-05-25T01:44:43.712Z,11.28
2019-05-25T01:47:13.746Z,11.24
2019-05-25T01:49:43.762Z,11.26
2019-05-25T01:52:14.045Z,11.29
2019-05-25T01:54:57.142Z,11.31
2019-05-25T01:57:14.554Z,11.42
2019-05-25T01:59:43.816Z,11.48
2019-05-25T02:02:13.825Z,11.60
2019-05-25T02:04:43.860Z,11.60
2019-05-25T02:07:12.866Z,11.47
2019-05-25T02:09:41.899Z,11.40
2019-05-25T02:12:10.903Z,11.44
2019-05-25T02:14:39.929Z,11.33
2019-05-25T02:17:08.934Z,11.33
2019-05-25T02:19:37.899Z,11.48
2019-05-25T02:22:06.907Z,11.54
2019-05-25T02:24:35.854Z,11.54
2019-05-25T02:27:04.882Z,11.46
2019-05-25T02:29:33.929Z,11.52
2019-05-25T02:32:02.937Z,11.38
2019-05-25T02:34:31.942Z,11.38
2019-05-25T02:37:00.991Z,11.31
2019-05-25T02:39:30.005Z,11.29
2019-05-25T02:41:59.046Z,11.30
2019-05-25T02:44:28.014Z,11.31
2019-05-25T02:46:57.065Z,11.31
2019-05-25T02:49:26.073Z,11.45
2019-05-25T02:51:55.085Z,11.55
2019-05-25T02:54:24.106Z,11.60
2019-05-25T02:56:53.148Z,11.71
2019-05-25T02:59:22.572Z,11.76
2019-05-25T03:01:52.019Z,11.71
2019-05-25T03:04:21.026Z,11.71
2019-05-25T03:06:51.904Z,11.77
2019-05-25T03:09:21.731Z,11.83
2019-05-25T03:11:51.348Z,11.79
2019-05-25T03:14:20.381Z,11.81
2019-05-25T03:16:49.690Z,11.91
2019-05-25T03:19:18.733Z,11.94
2019-05-25T03:21:47.721Z,11.94
2019-05-25T03:24:16.673Z,11.93
2019-05-25T03:26:46.061Z,11.88
2019-05-25T03:29:15.081Z,11.83
2019-05-25T03:31:44.541Z,11.91
2019-05-25T03:34:14.878Z,11.92
2019-05-25T03:36:44.909Z,11.99
2019-05-25T03:39:14.592Z,11.98
2019-05-25T03:41:44.627Z,12.01
2019-05-25T03:44:14.641Z,12.08
2019-05-25T03:46:44.682Z,12.09
2019-05-25T03:49:14.680Z,12.09
2019-05-25T03:51:44.671Z,12.11
2019-05-25T03:54:14.725Z,12.10
2019-05-25T03:56:44.741Z,12.09
2019-05-25T03:59:14.750Z,12.06
2019-05-25T04:01:44.794Z,12.05
2019-05-25T04:04:15.100Z,12.09
2019-05-25T04:06:44.805Z,12.08
2019-05-25T04:09:14.768Z,12.13
2019-05-25T04:11:44.815Z,12.22
2019-05-25T04:14:14.859Z,12.14
2019-05-25T04:16:44.883Z,12.20
2019-05-25T04:19:14.892Z,12.31
2019-05-25T04:21:44.917Z,12.27
2019-05-25T04:24:17.882Z,12.13
2019-05-25T04:26:46.913Z,12.11
2019-05-25T04:29:15.976Z,12.02
2019-05-25T04:31:45.010Z,11.95
2019-05-25T04:34:14.974Z,11.93
2019-05-25T04:36:45.289Z,12.00
2019-05-25T04:39:15.017Z,11.91
2019-05-25T04:41:45.008Z,11.88
2019-05-25T04:44:15.053Z,11.87
2019-05-25T04:46:45.089Z,11.77
2019-05-25T04:49:15.095Z,11.74
2019-05-25T04:51:45.036Z,11.75
2019-05-25T04:54:14.046Z,11.75
2019-05-25T04:56:43.087Z,11.81
2019-05-25T04:59:12.112Z,11.86
2019-05-25T05:01:41.441Z,11.89
2019-05-25T05:04:10.458Z,11.89
2019-05-25T05:06:39.563Z,11.86
2019-05-25T05:09:08.693Z,11.89
2019-05-25T05:11:37.755Z,11.94
2019-05-25T05:14:06.766Z,12.10
2019-05-25T05:16:35.808Z,12.13
2019-05-25T05:19:04.927Z,12.20
2019-05-25T05:21:33.950Z,12.29
2019-05-25T05:24:02.994Z,12.38
2019-05-25T05:26:32.002Z,12.46
2019-05-25T05:29:01.063Z,12.50
2019-05-25T05:31:30.164Z,12.45
2019-05-25T05:33:59.198Z,12.45
2019-05-25T05:36:29.840Z,12.46
2019-05-25T05:38:59.591Z,12.31
2019-05-25T05:41:31.245Z,12.40
2019-05-25T05:44:02.248Z,12.37
2019-05-25T05:46:32.919Z,12.44
2019-05-25T05:49:02.547Z,12.53
2019-05-25T05:51:34.738Z,12.62
2019-05-25T05:54:05.140Z,12.68
2019-05-25T05:56:34.169Z,12.74
2019-05-25T05:59:03.209Z,12.59
2019-05-25T06:01:32.210Z,12.30
2019-05-25T06:04:01.258Z,12.21
2019-05-25T06:06:30.281Z,12.43
2019-05-25T06:08:59.337Z,12.31
2019-05-25T06:11:28.357Z,12.31
2019-05-25T06:13:57.399Z,11.97
2019-05-25T06:16:26.413Z,12.00
2019-05-25T06:18:55.437Z,12.06
2019-05-25T06:21:24.829Z,12.04
2019-05-25T06:23:53.842Z,12.10
2019-05-25T06:26:22.870Z,12.29
2019-05-25T06:28:51.923Z,12.61
2019-05-25T06:31:20.925Z,12.74
2019-05-25T06:33:49.952Z,12.71
2019-05-25T06:36:19.010Z,12.85
2019-05-25T06:38:48.020Z,12.53
2019-05-25T06:41:17.059Z,12.53
2019-05-25T06:43:46.073Z,12.58
2019-05-25T06:46:15.102Z,12.15
2019-05-25T06:48:44.973Z,12.04
2019-05-25T06:51:15.010Z,12.02
2019-05-25T06:53:45.092Z,12.34
2019-05-25T06:56:15.060Z,12.34
2019-05-25T06:58:45.054Z,12.47
2019-05-25T07:01:15.085Z,12.44
2019-05-25T07:03:45.104Z,12.57
2019-05-25T07:06:15.160Z,12.75
2019-05-25T07:08:45.141Z,12.64
2019-05-25T07:11:15.146Z,12.81
2019-05-25T07:13:45.202Z,12.74
2019-05-25T07:16:15.090Z,12.66
2019-05-25T07:18:44.126Z,12.63
2019-05-25T07:21:13.134Z,12.77
2019-05-25T07:23:42.454Z,12.92
2019-05-25T07:26:11.762Z,12.93
2019-05-25T07:28:40.774Z,12.72
2019-05-25T07:31:09.816Z,12.68
2019-05-25T07:33:38.848Z,12.70
2019-05-25T07:36:08.160Z,12.75
2019-05-25T07:38:37.184Z,12.69
2019-05-25T07:41:06.249Z,12.72
2019-05-25T07:43:35.313Z,12.66
2019-05-25T07:46:04.323Z,12.88
2019-05-25T07:48:33.370Z,12.81
2019-05-25T07:51:02.390Z,12.69
2019-05-25T07:53:31.409Z,12.78
2019-05-25T07:56:00.424Z,12.95
2019-05-25T07:58:29.445Z,12.97
2019-05-25T08:00:58.656Z,12.65
2019-05-25T08:03:27.731Z,12.65
2019-05-25T08:05:56.764Z,12.41
2019-05-25T08:08:25.770Z,12.40
2019-05-25T08:10:54.827Z,12.55
2019-05-25T08:13:23.857Z,12.61
2019-05-25T08:15:52.790Z,12.74
2019-05-25T08:18:22.170Z,12.73
2019-05-25T08:20:51.201Z,13.21
2019-05-25T08:23:20.546Z,13.58
2019-05-25T08:25:49.571Z,13.74
2019-05-25T08:28:31.672Z,13.28
2019-05-25T08:30:49.390Z,13.43
2019-05-25T08:33:18.409Z,13.90
2019-05-25T08:35:47.427Z,14.43
2019-05-25T08:38:16.456Z,14.75
2019-05-25T08:40:45.720Z,14.78
2019-05-25T08:43:14.803Z,15.13
2019-05-25T08:45:45.634Z,15.13
2019-05-25T08:48:14.710Z,14.89
2019-05-25T08:50:43.713Z,15.01
2019-05-25T08:53:12.718Z,15.12
2019-05-25T08:55:42.012Z,15.44
2019-05-25T08:58:11.042Z,15.11
2019-05-25T09:00:40.112Z,15.11
2019-05-25T09:03:09.210Z,15.09
2019-05-25T09:05:38.286Z,14.58
2019-05-25T09:08:07.315Z,14.38
2019-05-25T09:10:36.352Z,14.58
2019-05-25T09:13:05.488Z,14.71
2019-05-25T09:15:34.492Z,14.55
2019-05-25T09:18:03.585Z,14.60
2019-05-25T09:20:32.587Z,14.51
2019-05-25T09:23:01.977Z,14.55
2019-05-25T09:25:30.990Z,14.67
2019-05-25T09:28:00.015Z,14.73
2019-05-25T09:30:29.095Z,15.18
2019-05-25T09:32:58.031Z,15.73
2019-05-25T09:35:27.070Z,15.90
2019-05-25T09:37:56.048Z,16.02
2019-05-25T09:40:25.067Z,15.15
2019-05-25T09:42:54.190Z,15.27
2019-05-25T09:45:23.242Z,15.51
2019-05-25T09:47:52.309Z,15.67
2019-05-25T09:50:21.476Z,16.21
2019-05-25T09:52:50.906Z,16.45
2019-05-25T09:55:22.106Z,16.19
2019-05-25T09:57:51.167Z,15.40
2019-05-25T10:00:21.846Z,15.27
2019-05-25T10:02:51.483Z,15.88
2019-05-25T10:05:20.876Z,15.76
2019-05-25T10:07:50.775Z,15.94
2019-05-25T10:10:22.084Z,16.56
2019-05-25T10:12:51.096Z,16.13
2019-05-25T10:15:20.263Z,16.83
2019-05-25T10:17:50.058Z,16.60
2019-05-25T10:20:19.092Z,16.75
2019-05-25T10:22:49.088Z,16.67
2019-05-25T10:25:19.280Z,16.02
2019-05-25T10:27:49.017Z,16.44
2019-05-25T10:30:18.546Z,16.67
2019-05-25T10:32:47.609Z,16.44
2019-05-25T10:35:16.865Z,16.74
2019-05-25T10:37:45.886Z,16.78
2019-05-25T10:40:15.090Z,17.40
2019-05-25T10:42:44.127Z,17.01
2019-05-25T10:45:13.350Z,16.32
2019-05-25T10:47:42.369Z,16.15
2019-05-25T10:50:12.823Z,15.95
2019-05-25T10:52:41.950Z,16.15
2019-05-25T10:55:11.589Z,16.10
2019-05-25T10:57:40.599Z,16.54
2019-05-25T11:00:10.860Z,17.34
2019-05-25T11:02:39.863Z,17.69
2019-05-25T11:05:10.998Z,17.76
2019-05-25T11:07:39.998Z,17.68
2019-05-25T11:10:09.840Z,17.98
2019-05-25T11:12:38.870Z,18.10
2019-05-25T11:15:08.427Z,17.80
2019-05-25T11:17:37.441Z,18.03
2019-05-25T11:20:07.071Z,17.53
2019-05-25T11:22:36.091Z,17.52
2019-05-25T11:25:06.036Z,17.61
2019-05-25T11:27:35.050Z,16.68
2019-05-25T11:30:08.967Z,16.40
2019-05-25T11:32:35.158Z,16.13
2019-05-25T11:35:04.435Z,15.91
2019-05-25T11:37:33.449Z,16.67
2019-05-25T11:40:02.519Z,16.60
2019-05-25T11:42:31.559Z,16.91
2019-05-25T11:45:00.588Z,16.69
2019-05-25T11:47:29.627Z,16.92
2019-05-25T11:49:58.629Z,16.46
2019-05-25T11:52:27.669Z,16.52
2019-05-25T11:54:56.705Z,16.90
2019-05-25T11:57:25.742Z,17.33
2019-05-25T11:59:54.776Z,16.65
2019-05-25T12:02:23.817Z,16.39
2019-05-25T12:04:52.849Z,16.45
2019-05-25T12:07:21.884Z,16.79
2019-05-25T12:09:51.540Z,16.39
2019-05-25T12:12:21.521Z,16.85
2019-05-25T12:14:51.571Z,16.15
2019-05-25T12:17:21.561Z,15.43
2019-05-25T12:19:51.668Z,15.28
2019-05-25T12:22:21.813Z,15.57
2019-05-25T12:24:51.566Z,15.44
2019-05-25T12:27:20.606Z,15.47
2019-05-25T12:29:49.766Z,15.78
2019-05-25T12:32:18.799Z,15.97
2019-05-25T12:34:47.959Z,15.86
2019-05-25T12:37:16.964Z,15.76
2019-05-25T12:39:45.970Z,15.48
2019-05-25T12:42:15.012Z,15.79
2019-05-25T12:44:44.019Z,15.42
2019-05-25T12:47:13.048Z,15.51
2019-05-25T12:49:50.818Z,15.39
2019-05-25T12:52:13.062Z,15.22
2019-05-25T12:54:42.106Z,15.22
2019-05-25T12:57:11.220Z,15.05
2019-05-25T12:59:40.251Z,14.86
2019-05-25T13:02:09.272Z,14.95
2019-05-25T13:04:38.312Z,14.97
2019-05-25T13:07:07.842Z,14.98
2019-05-25T13:09:36.897Z,15.19
2019-05-25T13:12:06.009Z,14.88
2019-05-25T13:14:35.033Z,15.08
2019-05-25T13:17:04.044Z,15.17
2019-05-25T13:19:33.105Z,15.38
2019-05-25T13:22:02.130Z,15.20
2019-05-25T13:24:31.242Z,14.91
2019-05-25T13:27:00.238Z,14.92
2019-05-25T13:29:29.297Z,14.85
2019-05-25T13:31:58.641Z,14.70
2019-05-25T13:34:27.733Z,14.79
2019-05-25T13:37:01.426Z,14.88
2019-05-25T13:39:28.821Z,15.22
2019-05-25T13:41:57.832Z,15.21
2019-05-25T13:44:27.737Z,14.89
2019-05-25T13:46:57.778Z,15.12
2019-05-25T13:49:26.744Z,15.03
2019-05-25T13:51:55.757Z,14.36
2019-05-25T13:54:24.805Z,13.99
2019-05-25T13:56:53.848Z,13.84
2019-05-25T13:59:22.894Z,13.65
2019-05-25T14:01:51.957Z,13.71
2019-05-25T14:04:20.993Z,13.73
2019-05-25T14:06:50.110Z,13.97
2019-05-25T14:09:19.171Z,14.19
2019-05-25T14:11:48.207Z,14.18
2019-05-25T14:14:17.241Z,14.26
2019-05-25T14:16:46.265Z,14.42
2019-05-25T14:19:15.281Z,14.28
2019-05-25T14:21:44.320Z,14.23
2019-05-25T14:24:13.348Z,14.03
2019-05-25T14:26:42.731Z,13.89
2019-05-25T14:29:11.766Z,14.01
2019-05-25T14:31:45.491Z,13.94
2019-05-25T14:34:11.602Z,13.88
2019-05-25T14:36:40.644Z,13.98
2019-05-25T14:39:09.705Z,14.01
2019-05-25T14:41:38.705Z,13.87
2019-05-25T14:44:08.373Z,13.82
2019-05-25T14:46:38.360Z,13.99
2019-05-25T14:49:08.376Z,14.04
2019-05-25T14:51:38.415Z,14.09
2019-05-25T14:54:08.367Z,13.96
2019-05-25T14:56:38.384Z,13.79
2019-05-25T14:59:08.345Z,13.95
2019-05-25T15:01:38.373Z,14.06
2019-05-25T15:04:08.394Z,14.44
2019-05-25T15:06:38.432Z,14.65
2019-05-25T15:09:08.551Z,14.62
2019-05-25T15:11:38.454Z,14.68
2019-05-25T15:14:08.452Z,14.55
2019-05-25T15:16:38.523Z,14.31
2019-05-25T15:19:08.500Z,14.43
2019-05-25T15:21:38.731Z,14.53
2019-05-25T15:24:08.487Z,14.49
2019-05-25T15:26:38.520Z,14.51
2019-05-25T15:29:11.321Z,14.44
2019-05-25T15:31:39.357Z,14.39
2019-05-25T15:34:08.406Z,14.32
2019-05-25T15:36:37.423Z,14.12
2019-05-25T15:39:08.328Z,13.65
2019-05-25T15:41:37.354Z,13.47
2019-05-25T15:44:06.391Z,13.50
2019-05-25T15:46:35.410Z,13.65
2019-05-25T15:49:04.574Z,13.84
2019-05-25T15:51:33.914Z,13.96
2019-05-25T15:54:02.952Z,14.06
2019-05-25T15:56:31.982Z,14.16
2019-05-25T15:59:00.997Z,14.18
2019-05-25T16:01:30.062Z,14.08
2019-05-25T16:03:59.087Z,14.39
2019-05-25T16:06:28.128Z,14.58
2019-05-25T16:08:57.173Z,14.59
2019-05-25T16:11:26.193Z,14.33
2019-05-25T16:13:55.215Z,14.31
2019-05-25T16:16:29.503Z,14.23
2019-05-25T16:18:55.015Z,14.11
2019-05-25T16:21:24.021Z,13.87
2019-05-25T16:23:53.049Z,13.68
2019-05-25T16:26:22.066Z,13.54
2019-05-25T16:28:51.078Z,13.46
2019-05-25T16:31:20.118Z,13.63
2019-05-25T16:33:49.418Z,13.56
2019-05-25T16:36:18.739Z,13.45
2019-05-25T16:38:47.766Z,13.41
2019-05-25T16:41:16.731Z,13.37
2019-05-25T16:43:45.745Z,13.55
2019-05-25T16:46:14.785Z,13.48
2019-05-25T16:48:43.803Z,13.56
2019-05-25T16:51:12.851Z,13.46
2019-05-25T16:53:41.880Z,13.45
2019-05-25T16:56:10.922Z,13.21
2019-05-25T16:58:39.934Z,12.99
2019-05-25T17:01:08.970Z,13.09
2019-05-25T17:03:38.432Z,13.23
2019-05-25T17:06:07.464Z,13.38
2019-05-25T17:08:36.476Z,13.58
2019-05-25T17:11:05.514Z,13.70
2019-05-25T17:13:34.514Z,13.81
2019-05-25T17:16:03.960Z,13.85
2019-05-25T17:18:33.007Z,13.70
2019-05-25T17:21:02.107Z,13.74
2019-05-25T17:23:31.088Z,13.85
2019-05-25T17:26:00.466Z,13.73
2019-05-25T17:28:30.212Z,13.70
2019-05-25T17:30:59.269Z,13.62
2019-05-25T17:33:44.804Z,13.54
2019-05-25T17:35:59.033Z,13.43
2019-05-25T17:38:28.340Z,13.22
2019-05-25T17:40:57.351Z,13.13
2019-05-25T17:43:26.409Z,13.12
2019-05-25T17:45:55.425Z,13.25
2019-05-25T17:48:24.469Z,13.40
2019-05-25T17:50:53.523Z,13.45
2019-05-25T17:53:22.563Z,13.39
2019-05-25T17:55:51.589Z,13.32
2019-05-25T17:58:20.665Z,13.38
2019-05-25T18:00:50.619Z,13.35
2019-05-25T18:03:19.945Z,13.43
2019-05-25T18:05:48.923Z,13.42
2019-05-25T18:08:18.620Z,13.40
2019-05-25T18:10:53.431Z,13.34
2019-05-25T18:13:19.348Z,13.47
2019-05-25T18:15:50.919Z,13.64
2019-05-25T18:18:20.023Z,13.73
2019-05-25T18:20:49.667Z,13.72
2019-05-25T18:23:19.132Z,13.74
2019-05-25T18:25:49.823Z,13.44
2019-05-25T18:28:18.867Z,13.35
2019-05-25T18:30:48.733Z,13.34
2019-05-25T18:33:18.811Z,13.05
2019-05-25T18:35:48.802Z,13.46
2019-05-25T18:38:19.056Z,13.39
2019-05-25T18:40:48.826Z,13.25
2019-05-25T18:43:18.703Z,13.34
2019-05-25T18:45:48.741Z,13.30
2019-05-25T18:48:18.756Z,13.26
2019-05-25T18:50:48.762Z,13.07
2019-05-25T18:53:18.800Z,13.06
2019-05-25T18:55:49.744Z,12.99
2019-05-25T18:58:18.838Z,13.01
2019-05-25T19:00:48.826Z,12.96
2019-05-25T19:03:18.846Z,13.02
2019-05-25T19:05:48.240Z,13.01
2019-05-25T19:08:17.294Z,12.88
2019-05-25T19:10:46.309Z,12.86
2019-05-25T19:13:15.334Z,12.84
2019-05-25T19:15:44.402Z,12.79
2019-05-25T19:18:13.418Z,12.82
2019-05-25T19:20:42.453Z,12.74
2019-05-25T19:23:11.484Z,12.67
2019-05-25T19:25:40.537Z,12.66
2019-05-25T19:28:09.552Z,12.66
2019-05-25T19:30:38.582Z,12.64
2019-05-25T19:33:08.710Z,12.55
2019-05-25T19:35:37.742Z,12.44
2019-05-25T19:38:06.750Z,12.38
2019-05-25T19:40:35.779Z,12.41
2019-05-25T19:43:04.798Z,12.45
2019-05-25T19:45:34.164Z,12.41
2019-05-25T19:48:03.168Z,12.41
2019-05-25T19:50:32.201Z,12.43
2019-05-25T19:53:01.265Z,12.39
2019-05-25T19:55:30.309Z,12.38
2019-05-25T19:57:59.315Z,12.33
2019-05-25T20:00:28.322Z,12.28
2019-05-25T20:02:57.353Z,12.22
2019-05-25T20:05:26.356Z,12.14
2019-05-25T20:07:55.385Z,12.07
2019-05-25T20:10:24.411Z,12.05
2019-05-25T20:12:53.456Z,11.99
2019-05-25T20:15:22.460Z,11.89
2019-05-25T20:17:51.485Z,11.83
2019-05-25T20:20:20.903Z,11.61
2019-05-25T20:22:50.940Z,11.61
2019-05-25T20:25:20.927Z,11.54
2019-05-25T20:27:50.927Z,11.47
2019-05-25T20:30:20.957Z,11.45
2019-05-25T20:32:51.012Z,11.39
2019-05-25T20:35:32.402Z,11.38
2019-05-25T20:37:51.732Z,11.32
2019-05-25T20:40:21.065Z,11.30
2019-05-25T20:42:51.325Z,11.26
2019-05-25T20:45:21.093Z,11.34
2019-05-25T20:47:51.103Z,11.34
2019-05-25T20:50:21.129Z,11.37
2019-05-25T20:52:51.479Z,11.40
2019-05-25T20:55:21.168Z,11.44
2019-05-25T20:57:51.093Z,11.44
2019-05-25T21:00:24.036Z,11.48
2019-05-25T21:03:05.075Z,11.44
2019-05-25T21:05:22.217Z,11.42
2019-05-25T21:07:51.265Z,11.41
2019-05-25T21:10:21.280Z,11.39
2019-05-25T21:12:51.277Z,11.38
2019-05-25T21:15:21.319Z,11.38
2019-05-25T21:17:51.304Z,11.36
2019-05-25T21:20:21.351Z,11.36
2019-05-25T21:22:51.359Z,11.33
2019-05-25T21:25:21.413Z,11.33
2019-05-25T21:27:51.365Z,11.25
2019-05-25T21:30:21.717Z,11.22
2019-05-25T21:32:51.687Z,11.18
2019-05-25T21:35:21.555Z,11.05
2019-05-25T21:37:51.467Z,11.05
2019-05-25T21:40:21.490Z,11.03
2019-05-25T21:42:51.936Z,11.04
2019-05-25T21:45:21.516Z,11.06
2019-05-25T21:47:56.324Z,11.07
2019-05-25T21:50:25.416Z,11.03
2019-05-25T21:52:54.440Z,11.06
2019-05-25T21:55:23.465Z,11.10
2019-05-25T21:57:52.487Z,11.06
2019-05-25T22:00:23.496Z,10.96
2019-05-25T22:02:52.517Z,10.95
2019-05-25T22:05:21.676Z,10.92
2019-05-25T22:07:51.723Z,10.90
2019-05-25T22:10:21.688Z,10.84
2019-05-25T22:12:51.732Z,10.79
2019-05-25T22:15:21.721Z,10.77
2019-05-25T22:17:51.994Z,10.75
2019-05-25T22:20:21.745Z,10.75
2019-05-25T22:22:51.765Z,10.72
2019-05-25T22:25:21.764Z,10.70
2019-05-25T22:27:51.842Z,10.65
2019-05-25T22:30:23.282Z,10.68
2019-05-25T22:32:52.333Z,10.63
2019-05-25T22:35:21.840Z,10.61
2019-05-25T22:37:51.883Z,10.61
2019-05-25T22:40:21.978Z,10.58
2019-05-25T22:42:51.899Z,10.56
2019-05-25T22:45:21.900Z,10.55
2019-05-25T22:47:51.929Z,10.44
2019-05-25T22:50:22.237Z,10.44
2019-05-25T22:52:51.978Z,10.43
2019-05-25T22:55:21.986Z,10.39
2019-05-25T22:57:52.002Z,10.38
2019-05-25T23:00:22.030Z,10.36
2019-05-25T23:02:52.046Z,10.41
2019-05-25T23:05:22.663Z,10.34
2019-05-25T23:07:52.420Z,10.35
2019-05-25T23:10:22.106Z,10.33
2019-05-25T23:12:52.111Z,10.36
2019-05-25T23:15:22.236Z,10.24
2019-05-25T23:17:52.134Z,10.36
2019-05-25T23:20:22.168Z,10.34
2019-05-25T23:22:52.158Z,10.30
2019-05-25T23:25:22.210Z,10.34
2019-05-25T23:27:52.190Z,10.34
2019-05-25T23:30:22.433Z,10.33
2019-05-25T23:32:52.256Z,10.35
2019-05-25T23:35:22.272Z,10.30
2019-05-25T23:37:52.307Z,10.30
2019-05-25T23:40:22.297Z,10.29
2019-05-25T23:42:52.310Z,10.35
2019-05-25T23:45:22.332Z,10.32
2019-05-25T23:47:52.356Z,10.32
2019-05-25T23:50:22.361Z,10.34
2019-05-25T23:52:52.473Z,10.36
2019-05-25T23:55:22.386Z,10.36
2019-05-25T23:57:52.355Z,10.38
